Time;durP1;ratioP1;P1;durP2;ratioP2;P2;SDS_P1;SDS_P2;PMS_P1;PMS_P2;Temp;Humidity;BMP_temperature;BMP_pressure;BME280_temperature;BME280_humidity;BME280_pressure;Samples;Min_cycle;Max_cycle;Signal;HPM_P1;HPM_P2
2022/09/24 00:00:50;;;;;;;2.33;2.23;;;8.90;78.00;;;;;;5046711;28;20368;-73
2022/09/24 00:03:16;;;;;;;2.10;1.77;;;8.90;78.40;;;;;;5048391;28;20186;-73
2022/09/24 00:05:41;;;;;;;2.43;2.20;;;8.80;78.20;;;;;;5051726;28;20988;-72
2022/09/24 00:08:08;;;;;;;4.20;2.27;;;8.80;78.60;;;;;;5050759;28;20301;-71
2022/09/24 00:10:41;;;;;;;5.00;2.60;;;8.80;78.30;;;;;;5051999;28;20183;-73
2022/09/24 00:13:11;;;;;;;2.20;2.10;;;8.80;78.30;;;;;;5051790;28;20601;-72
2022/09/24 00:15:39;;;;;;;2.77;2.53;;;8.80;79.20;;;;;;5050054;28;20187;-74
2022/09/24 00:18:06;;;;;;;2.33;2.13;;;8.70;78.50;;;;;;5048556;28;20183;-72
2022/09/24 00:20:32;;;;;;;2.60;2.40;;;8.70;78.40;;;;;;5044422;28;20206;-72
2022/09/24 00:22:59;;;;;;;3.07;2.60;;;8.70;78.90;;;;;;5053278;28;20191;-73
2022/09/24 00:28:10;;;;;;;2.97;2.30;;;8.60;79.10;;;;;;5058488;28;20699;-73
2022/09/24 00:30:40;;;;;;;2.30;2.20;;;8.60;79.30;;;;;;5061024;28;20555;-73
2022/09/24 00:33:06;;;;;;;2.50;2.30;;;8.60;79.20;;;;;;5050413;28;20197;-73
2022/09/24 00:35:32;;;;;;;2.30;2.20;;;8.60;79.10;;;;;;5050232;28;20222;-73
2022/09/24 00:37:58;;;;;;;2.17;2.07;;;8.60;79.20;;;;;;5053342;28;20726;-73
2022/09/24 00:40:28;;;;;;;3.07;2.33;;;8.60;79.50;;;;;;5049689;28;20187;-73
2022/09/24 00:42:54;;;;;;;2.17;2.00;;;8.60;79.50;;;;;;5057311;28;20194;-73
2022/09/24 00:45:20;;;;;;;2.40;2.20;;;8.60;79.80;;;;;;5060304;28;20190;-73
2022/09/24 00:47:47;;;;;;;2.30;2.20;;;8.60;80.00;;;;;;5054707;28;20660;-73
2022/09/24 00:50:24;;;;;;;4.73;2.67;;;8.50;78.90;;;;;;5048737;28;20236;-73
2022/09/24 00:53:09;;;;;;;2.10;2.00;;;8.50;80.20;;;;;;5052141;28;20175;-73
2022/09/24 00:55:38;;;;;;;2.27;2.17;;;8.50;79.80;;;;;;5058238;28;20585;-73
2022/09/24 00:58:07;;;;;;;2.17;2.07;;;8.40;80.00;;;;;;5047194;28;20180;-71
2022/09/24 01:00:35;;;;;;;1.83;1.73;;;8.40;80.10;;;;;;5055332;28;20171;-72
2022/09/24 01:03:16;;;;;;;1.70;1.60;;;8.40;80.30;;;;;;5048898;28;20249;-72
2022/09/24 01:05:42;;;;;;;2.23;2.13;;;8.40;80.30;;;;;;5053848;28;20211;-72
2022/09/24 01:08:12;;;;;;;2.03;1.93;;;8.40;80.90;;;;;;5051655;28;20190;-72
2022/09/24 01:10:59;;;;;;;7.23;2.33;;;8.40;80.30;;;;;;5051452;28;20305;-72
2022/09/24 01:13:43;;;;;;;2.63;2.47;;;8.30;80.30;;;;;;5048809;28;20215;-72
2022/09/24 01:16:24;;;;;;;1.93;1.83;;;8.30;80.90;;;;;;5051082;28;20665;-72
2022/09/24 01:18:59;;;;;;;1.93;1.83;;;8.30;80.60;;;;;;5051169;28;20188;-72
2022/09/24 01:21:51;;;;;;;4.33;1.73;;;8.20;80.60;;;;;;5053113;28;20190;-72
2022/09/24 01:24:40;;;;;;;2.37;2.10;;;8.20;80.10;;;;;;5052278;28;20607;-72
2022/09/24 01:27:38;;;;;;;4.43;1.67;;;8.20;80.90;;;;;;5054208;28;20219;-72
2022/09/24 01:30:10;;;;;;;2.20;2.10;;;8.20;81.00;;;;;;5051172;28;20176;-72
2022/09/24 01:32:39;;;;;;;1.67;1.67;;;8.10;81.00;;;;;;5051464;28;20176;-72
2022/09/24 01:35:15;;;;;;;2.47;1.70;;;8.10;81.20;;;;;;5052260;28;20182;-72
2022/09/24 01:37:47;;;;;;;1.90;1.80;;;8.10;81.10;;;;;;5052789;28;20249;-72
2022/09/24 01:40:13;;;;;;;2.13;1.80;;;8.00;81.20;;;;;;5052556;28;20268;-72
2022/09/24 01:42:42;;;;;;;1.87;1.70;;;8.00;81.50;;;;;;5045615;28;20549;-72
2022/09/24 01:45:10;;;;;;;2.80;2.60;;;8.00;81.30;;;;;;5053206;28;20186;-72
2022/09/24 01:47:38;;;;;;;3.43;2.40;;;8.00;81.60;;;;;;5053759;28;20215;-72
2022/09/24 01:50:13;;;;;;;2.00;1.90;;;7.90;81.60;;;;;;5056054;28;20183;-72
2022/09/24 01:52:49;;;;;;;2.57;2.33;;;7.90;81.40;;;;;;5054343;28;20620;-73
2022/09/24 01:55:19;;;;;;;2.13;1.90;;;7.90;81.30;;;;;;5051988;28;20178;-72
2022/09/24 01:57:49;;;;;;;1.87;1.77;;;7.80;81.80;;;;;;5053761;28;20282;-72
2022/09/24 02:00:18;;;;;;;2.70;2.10;;;7.80;82.00;;;;;;5056290;28;20196;-72
2022/09/24 02:02:52;;;;;;;2.40;2.30;;;7.80;82.00;;;;;;5051942;28;20241;-72
2022/09/24 02:05:41;;;;;;;2.03;1.97;;;7.70;81.90;;;;;;5051653;28;20191;-72
2022/09/24 02:08:32;;;;;;;2.50;2.23;;;7.70;81.70;;;;;;5055210;28;20199;-72
2022/09/24 02:11:00;;;;;;;1.93;1.83;;;7.70;81.80;;;;;;5046828;28;20217;-72
2022/09/24 02:13:33;;;;;;;2.63;2.47;;;7.60;82.30;;;;;;5045582;28;20208;-72
2022/09/24 02:16:04;;;;;;;1.90;1.80;;;7.60;82.10;;;;;;5048213;28;20179;-72
2022/09/24 02:18:35;;;;;;;1.90;1.80;;;7.60;81.80;;;;;;5053454;28;20240;-72
2022/09/24 02:21:06;;;;;;;1.83;1.73;;;7.60;81.80;;;;;;5049808;28;20190;-72
2022/09/24 02:23:36;;;;;;;2.47;2.10;;;7.50;81.90;;;;;;5050623;28;20195;-72
2022/09/24 02:26:04;;;;;;;2.00;1.90;;;7.50;82.30;;;;;;5048934;28;20219;-72
2022/09/24 02:28:31;;;;;;;2.17;1.93;;;7.50;82.30;;;;;;5050171;28;20188;-72
2022/09/24 02:31:09;;;;;;;2.27;2.17;;;7.50;82.30;;;;;;5050157;28;20211;-72
2022/09/24 02:36:23;;;;;;;2.83;2.67;;;7.50;82.60;;;;;;5045992;28;20636;-71
2022/09/24 02:38:50;;;;;;;2.00;1.90;;;7.50;82.40;;;;;;5052872;28;20209;-72
2022/09/24 02:41:17;;;;;;;2.30;2.13;;;7.50;82.10;;;;;;5049695;28;20226;-72
2022/09/24 02:43:43;;;;;;;1.87;1.77;;;7.40;82.00;;;;;;5049594;28;20269;-72
2022/09/24 02:46:09;;;;;;;2.30;2.10;;;7.40;82.40;;;;;;5043803;28;20326;-72
2022/09/24 02:48:36;;;;;;;5.87;2.07;;;7.40;82.40;;;;;;5051871;28;20185;-71
2022/09/24 02:51:05;;;;;;;1.80;1.70;;;7.40;82.60;;;;;;5053565;28;20266;-72
2022/09/24 02:53:31;;;;;;;2.63;2.53;;;7.40;82.60;;;;;;5053399;28;20279;-72
2022/09/24 02:55:59;;;;;;;2.73;2.53;;;7.40;82.70;;;;;;5048469;28;20179;-72
2022/09/24 02:58:26;;;;;;;2.33;2.23;;;7.40;83.20;;;;;;5051367;28;20180;-72
2022/09/24 03:00:54;;;;;;;3.03;2.03;;;7.40;83.50;;;;;;5050859;28;20193;-72
2022/09/24 03:03:21;;;;;;;2.63;2.30;;;7.40;83.30;;;;;;5045308;28;20238;-72
2022/09/24 03:05:48;;;;;;;2.13;1.70;;;7.40;83.00;;;;;;5050400;28;20221;-71
2022/09/24 03:08:13;;;;;;;2.23;2.03;;;7.30;82.90;;;;;;5051088;28;20188;-73
2022/09/24 03:10:39;;;;;;;2.77;2.57;;;7.30;83.00;;;;;;5053029;28;20201;-72
2022/09/24 03:13:05;;;;;;;2.70;2.47;;;7.30;83.10;;;;;;5055235;28;20179;-72
2022/09/24 03:15:31;;;;;;;2.53;2.20;;;7.30;83.00;;;;;;5045965;28;20176;-71
2022/09/24 03:17:57;;;;;;;2.90;2.80;;;7.30;83.20;;;;;;5049711;28;20191;-72
2022/09/24 03:20:23;;;;;;;4.20;2.70;;;7.20;83.10;;;;;;5050175;28;20618;-72
2022/09/24 03:22:52;;;;;;;5.00;2.83;;;7.20;83.20;;;;;;5053973;28;20179;-72
2022/09/24 03:25:19;;;;;;;2.07;1.93;;;7.20;83.30;;;;;;5050279;28;20568;-71
2022/09/24 03:27:45;;;;;;;2.97;2.77;;;7.20;83.20;;;;;;5047973;28;20677;-73
2022/09/24 03:32:57;;;;;;;4.00;2.60;;;7.20;83.30;;;;;;5049989;28;20202;-71
2022/09/24 03:35:22;;;;;;;2.30;2.10;;;7.10;83.40;;;;;;5051806;28;20187;-73
2022/09/24 03:37:48;;;;;;;2.53;2.33;;;7.10;83.50;;;;;;5051425;28;20270;-73
2022/09/24 03:40:14;;;;;;;2.27;2.07;;;7.10;83.60;;;;;;5054356;28;20656;-73
2022/09/24 03:42:39;;;;;;;3.20;2.00;;;7.10;83.40;;;;;;5043431;28;20179;-71
2022/09/24 03:45:06;;;;;;;2.60;2.40;;;7.00;83.20;;;;;;5046305;28;20191;-72
2022/09/24 03:47:32;;;;;;;2.80;2.60;;;7.00;83.00;;;;;;5049540;28;20239;-72
2022/09/24 03:49:58;;;;;;;3.67;3.40;;;6.90;83.50;;;;;;5055273;28;20565;-72
2022/09/24 03:52:25;;;;;;;2.90;2.73;;;6.90;83.40;;;;;;5050362;28;20179;-72
2022/09/24 03:54:51;;;;;;;2.60;2.40;;;6.90;83.80;;;;;;5051685;28;20179;-72
2022/09/24 03:57:17;;;;;;;3.33;2.73;;;6.90;84.30;;;;;;5052102;28;20182;-72
2022/09/24 03:59:43;;;;;;;2.03;1.93;;;6.90;84.30;;;;;;5052489;28;20301;-72
2022/09/24 04:02:10;;;;;;;2.60;2.50;;;6.90;84.40;;;;;;5051972;28;20199;-72
2022/09/24 04:04:36;;;;;;;2.33;2.13;;;6.80;84.20;;;;;;5053385;28;20188;-72
2022/09/24 04:07:02;;;;;;;1.90;1.80;;;6.80;84.30;;;;;;5050617;28;20218;-72
2022/09/24 04:09:28;;;;;;;2.00;1.90;;;6.80;84.40;;;;;;5049856;28;20681;-72
2022/09/24 04:11:54;;;;;;;3.70;2.10;;;6.80;84.40;;;;;;5042449;28;20203;-72
2022/09/24 04:14:20;;;;;;;2.00;1.90;;;6.80;84.50;;;;;;5040825;28;20603;-72
2022/09/24 04:16:46;;;;;;;2.57;2.20;;;6.80;84.90;;;;;;5047701;28;20191;-72
2022/09/24 04:19:14;;;;;;;1.73;1.73;;;6.80;84.80;;;;;;5044596;28;20190;-72
2022/09/24 04:21:41;;;;;;;5.43;2.23;;;6.80;84.80;;;;;;5048039;28;20292;-72
2022/09/24 04:24:06;;;;;;;2.27;2.17;;;6.70;84.70;;;;;;5047260;28;20190;-71
2022/09/24 04:26:32;;;;;;;4.87;2.47;;;6.70;84.60;;;;;;5045253;28;20211;-71
2022/09/24 04:28:58;;;;;;;2.07;1.97;;;6.70;84.60;;;;;;5052533;28;20189;-71
2022/09/24 04:31:26;;;;;;;2.03;1.93;;;6.70;84.60;;;;;;5046945;28;20184;-72
2022/09/24 04:33:52;;;;;;;2.73;2.10;;;6.70;85.00;;;;;;5050607;28;20252;-72
2022/09/24 04:36:18;;;;;;;3.40;2.70;;;6.70;85.10;;;;;;5047146;28;20191;-72
2022/09/24 04:38:45;;;;;;;2.27;2.17;;;6.70;85.60;;;;;;5048357;28;20183;-71
2022/09/24 04:41:12;;;;;;;3.33;2.30;;;6.70;86.10;;;;;;5051008;28;20669;-73
2022/09/24 04:43:38;;;;;;;2.33;2.13;;;6.60;86.00;;;;;;5049649;28;20337;-73
2022/09/24 04:46:04;;;;;;;2.30;2.13;;;6.60;86.00;;;;;;5051776;28;20666;-73
2022/09/24 04:48:30;;;;;;;2.60;2.27;;;6.60;85.40;;;;;;5045676;28;20190;-73
2022/09/24 04:50:57;;;;;;;2.13;2.10;;;6.60;85.50;;;;;;5048247;28;20171;-73
2022/09/24 04:53:23;;;;;;;2.33;2.23;;;6.60;85.60;;;;;;5048637;28;20188;-72
2022/09/24 04:55:49;;;;;;;2.07;1.90;;;6.60;85.40;;;;;;5047052;28;20598;-73
2022/09/24 04:58:15;;;;;;;3.37;2.27;;;6.60;85.40;;;;;;5051728;28;20194;-71
2022/09/24 05:00:42;;;;;;;2.70;2.50;;;6.60;85.50;;;;;;5050760;28;20672;-72
2022/09/24 05:03:07;;;;;;;2.50;2.10;;;6.70;85.60;;;;;;5046239;28;20211;-73
2022/09/24 05:05:34;;;;;;;2.33;2.23;;;6.70;85.50;;;;;;5045496;28;20661;-71
2022/09/24 05:08:00;;;;;;;1.83;1.73;;;6.70;85.70;;;;;;5048046;28;20195;-71
2022/09/24 05:10:27;;;;;;;2.57;2.47;;;6.80;85.90;;;;;;5048451;28;20180;-71
2022/09/24 05:12:54;;;;;;;2.53;2.33;;;6.80;85.90;;;;;;5048805;28;21130;-71
2022/09/24 05:15:20;;;;;;;2.30;2.20;;;6.80;86.40;;;;;;5056206;28;20190;-75
2022/09/24 05:17:46;;;;;;;3.30;3.03;;;6.90;86.70;;;;;;5051851;28;20183;-71
2022/09/24 05:20:15;;;;;;;3.37;2.77;;;6.90;87.10;;;;;;5048734;28;20179;-72
2022/09/24 05:22:42;;;;;;;4.30;3.03;;;6.90;86.90;;;;;;5050573;28;20217;-72
2022/09/24 05:25:08;;;;;;;2.87;2.63;;;6.90;87.10;;;;;;5052902;28;20175;-72
2022/09/24 05:27:34;;;;;;;3.50;3.30;;;6.90;86.60;;;;;;5049820;28;20799;-73
2022/09/24 05:30:00;;;;;;;4.50;2.60;;;6.90;86.60;;;;;;5057718;28;20234;-74
2022/09/24 05:32:26;;;;;;;2.90;2.70;;;7.00;86.80;;;;;;5056191;28;20183;-72
2022/09/24 05:34:52;;;;;;;6.73;3.00;;;7.00;86.90;;;;;;5053152;28;20241;-75
2022/09/24 05:37:18;;;;;;;4.03;3.13;;;7.00;86.60;;;;;;5059176;28;20182;-74
2022/09/24 05:39:44;;;;;;;6.27;3.00;;;7.10;86.60;;;;;;5048577;28;20191;-73
2022/09/24 05:42:13;;;;;;;2.93;2.77;;;7.10;86.60;;;;;;5053302;28;20273;-74
2022/09/24 05:44:39;;;;;;;4.60;2.80;;;7.20;86.80;;;;;;5051159;28;20184;-74
2022/09/24 05:47:05;;;;;;;2.73;2.63;;;7.20;86.70;;;;;;5050225;28;20226;-73
2022/09/24 05:49:30;;;;;;;3.50;3.30;;;7.20;86.90;;;;;;5048429;28;20188;-73
2022/09/24 05:51:57;;;;;;;3.33;3.07;;;7.30;86.70;;;;;;5052549;28;20251;-75
2022/09/24 05:54:22;;;;;;;3.60;3.30;;;7.30;86.70;;;;;;5053790;28;20184;-73
2022/09/24 05:56:48;;;;;;;2.97;2.77;;;7.40;86.70;;;;;;5048414;28;20183;-74
2022/09/24 05:59:14;;;;;;;4.27;3.03;;;7.40;86.80;;;;;;5051134;28;20184;-74
2022/09/24 06:01:40;;;;;;;3.00;2.90;;;7.50;86.80;;;;;;5054066;28;20287;-74
2022/09/24 06:04:06;;;;;;;3.40;3.10;;;7.50;86.70;;;;;;5050720;28;20241;-74
2022/09/24 06:06:31;;;;;;;3.27;3.07;;;7.60;87.10;;;;;;5052256;28;20203;-73
2022/09/24 06:08:57;;;;;;;4.30;3.90;;;7.60;86.50;;;;;;5053364;28;20176;-74
2022/09/24 06:11:33;;;;;;;3.60;3.40;;;7.70;86.90;;;;;;5041299;28;20182;-75
2022/09/24 06:14:01;;;;;;;3.37;3.27;;;7.80;86.70;;;;;;5043943;28;20190;-74
2022/09/24 06:16:27;;;;;;;2.97;2.87;;;7.80;86.80;;;;;;5045803;28;20186;-75
2022/09/24 06:18:53;;;;;;;5.00;3.43;;;7.90;86.70;;;;;;5053384;28;20763;-74
2022/09/24 06:21:19;;;;;;;3.40;3.10;;;7.90;87.30;;;;;;5057200;28;20214;-74
2022/09/24 06:23:44;;;;;;;3.57;3.27;;;8.00;87.30;;;;;;5049768;28;20188;-74
2022/09/24 06:26:12;;;;;;;4.23;3.23;;;8.00;86.90;;;;;;5049466;28;20204;-75
2022/09/24 06:28:38;;;;;;;3.57;3.27;;;8.10;87.20;;;;;;5050033;28;20183;-72
2022/09/24 06:31:04;;;;;;;4.47;4.07;;;8.20;87.00;;;;;;5044669;28;20233;-72
2022/09/24 06:33:31;;;;;;;3.20;3.00;;;8.20;87.10;;;;;;5050584;28;20609;-73
2022/09/24 06:36:01;;;;;;;3.20;2.93;;;8.30;86.70;;;;;;5052811;28;20192;-73
2022/09/24 06:38:27;;;;;;;2.83;2.63;;;8.40;86.40;;;;;;5052878;28;20207;-72
2022/09/24 06:40:58;;;;;;;2.50;2.40;;;8.40;86.40;;;;;;5049345;28;20697;-73
2022/09/24 06:43:23;;;;;;;2.63;2.43;;;8.50;86.20;;;;;;5048242;28;20214;-75
2022/09/24 06:45:49;;;;;;;2.37;2.23;;;8.60;86.20;;;;;;5049248;28;20662;-75
2022/09/24 06:48:15;;;;;;;3.63;3.30;;;8.60;86.10;;;;;;5043921;28;20195;-74
2022/09/24 06:50:44;;;;;;;3.70;3.40;;;8.70;85.60;;;;;;5048878;28;20195;-73
2022/09/24 06:53:11;;;;;;;3.00;2.90;;;8.70;85.20;;;;;;5047626;28;20187;-73
2022/09/24 06:55:37;;;;;;;3.60;3.37;;;8.80;85.50;;;;;;5045814;28;21637;-73
2022/09/24 06:58:10;;;;;;;4.10;3.77;;;8.80;85.20;;;;;;5050226;28;20260;-72
2022/09/24 07:00:37;;;;;;;3.23;3.03;;;8.90;85.30;;;;;;5045266;28;20576;-74
2022/09/24 07:03:04;;;;;;;3.47;3.23;;;9.00;85.20;;;;;;5053482;28;20196;-74
2022/09/24 07:05:30;;;;;;;3.47;3.37;;;9.10;85.00;;;;;;5054190;28;20570;-73
2022/09/24 07:07:56;;;;;;;3.80;3.50;;;9.10;84.60;;;;;;5046934;28;20227;-73
2022/09/24 07:10:23;;;;;;;3.00;2.90;;;9.20;84.40;;;;;;5049341;28;20187;-73
2022/09/24 07:12:49;;;;;;;2.73;2.53;;;9.30;84.40;;;;;;5046887;28;20274;-73
2022/09/24 07:15:14;;;;;;;2.33;2.27;;;9.30;84.20;;;;;;5049194;28;20256;-74
2022/09/24 07:17:40;;;;;;;2.10;2.03;;;9.40;84.20;;;;;;5048626;28;21747;-74
2022/09/24 07:20:06;;;;;;;2.77;2.50;;;9.50;83.90;;;;;;5050968;28;20501;-74
2022/09/24 07:22:36;;;;;;;3.10;2.47;;;9.60;83.70;;;;;;5047565;28;20248;-71
2022/09/24 07:25:02;;;;;;;3.60;3.30;;;9.70;83.60;;;;;;5046514;28;20180;-74
2022/09/24 07:27:28;;;;;;;3.60;3.30;;;9.70;83.00;;;;;;5053403;28;20199;-73
2022/09/24 07:29:53;;;;;;;5.53;3.40;;;9.80;82.70;;;;;;5047262;28;20285;-74
2022/09/24 07:32:19;;;;;;;3.53;3.23;;;9.90;82.80;;;;;;5046765;28;20577;-73
2022/09/24 07:34:45;;;;;;;3.57;3.37;;;10.00;82.90;;;;;;5049535;28;20191;-73
2022/09/24 07:37:11;;;;;;;3.40;3.20;;;10.10;82.50;;;;;;5053777;28;20191;-74
2022/09/24 07:39:37;;;;;;;3.40;3.20;;;10.20;82.50;;;;;;5048813;28;20230;-76
2022/09/24 07:42:04;;;;;;;3.33;3.03;;;10.30;82.50;;;;;;5046137;28;20186;-75
2022/09/24 07:44:30;;;;;;;3.77;3.47;;;10.50;82.40;;;;;;5049999;28;20195;-76
2022/09/24 07:46:56;;;;;;;4.20;3.80;;;10.60;82.40;;;;;;5049283;28;20243;-74
2022/09/24 07:49:23;;;;;;;4.88;4.43;;;10.70;82.40;;;;;;5047069;28;20856;-77
2022/09/24 07:51:49;;;;;;;5.57;3.33;;;10.80;81.90;;;;;;5054998;28;20648;-76
2022/09/24 07:54:15;;;;;;;7.25;3.45;;;11.00;82.10;;;;;;5047175;28;20229;-75
2022/09/24 07:56:41;;;;;;;4.07;3.88;;;11.10;81.40;;;;;;5050485;28;20190;-74
2022/09/24 07:59:10;;;;;;;4.03;3.75;;;11.30;81.40;;;;;;5050999;28;20565;-76
2022/09/24 08:01:36;;;;;;;5.28;4.18;;;11.60;81.30;;;;;;5048996;28;20183;-74
2022/09/24 08:04:03;;;;;;;3.28;3.08;;;11.90;81.00;;;;;;5042425;28;20274;-75
2022/09/24 08:06:32;;;;;;;3.60;3.40;;;12.40;79.70;;;;;;5048665;28;20207;-72
2022/09/24 08:08:58;;;;;;;4.00;3.80;;;12.90;77.90;;;;;;5049265;28;20191;-75
2022/09/24 08:11:24;;;;;;;3.28;3.10;;;13.60;76.70;;;;;;5050439;28;20183;-76
2022/09/24 08:13:50;;;;;;;3.20;3.03;;;14.40;75.10;;;;;;5050033;28;20172;-76
2022/09/24 08:16:16;;;;;;;3.60;3.33;;;15.20;72.50;;;;;;5048633;28;20575;-78
2022/09/24 08:18:42;;;;;;;3.40;3.20;;;16.00;72.20;;;;;;5049672;28;20175;-76
2022/09/24 08:21:10;;;;;;;3.67;3.47;;;16.90;69.90;;;;;;5046244;28;20266;-76
2022/09/24 08:23:37;;;;;;;3.42;3.22;;;17.80;67.10;;;;;;5044786;28;20180;-76
2022/09/24 08:26:04;;;;;;;4.05;3.83;;;18.50;65.80;;;;;;5052781;28;20219;-75
2022/09/24 08:28:30;;;;;;;3.78;3.58;;;19.00;64.90;;;;;;5052154;28;20209;-76
2022/09/24 08:31:00;;;;;;;5.05;3.88;;;19.60;63.70;;;;;;5049678;28;20578;-75
2022/09/24 08:33:27;;;;;;;4.57;4.28;;;20.10;61.90;;;;;;5042721;28;20176;-75
2022/09/24 08:35:53;;;;;;;4.40;3.83;;;20.80;61.60;;;;;;5044994;28;20262;-75
2022/09/24 08:38:19;;;;;;;4.40;4.00;;;21.40;60.40;;;;;;5051277;28;20372;-75
2022/09/24 08:41:10;;;;;;;5.18;4.40;;;22.00;60.30;;;;;;5050617;28;20203;-74
2022/09/24 08:43:54;;;;;;;4.50;4.05;;;22.60;57.90;;;;;;5050125;28;20761;-76
2022/09/24 08:49:28;;;;;;;4.03;3.80;;;23.70;58.90;;;;;;5027843;28;20339;-75
2022/09/24 08:52:11;;;;;;;4.50;4.10;;;24.50;57.10;;;;;;5025840;28;20713;-76
2022/09/24 08:54:38;;;;;;;4.22;3.88;;;25.20;55.90;;;;;;5026956;28;20863;-76
2022/09/24 08:57:11;;;;;;;4.15;3.90;;;25.80;54.70;;;;;;5034095;28;20184;-76
2022/09/24 08:59:42;;;;;;;4.57;4.38;;;26.20;52.20;;;;;;5025295;28;20196;-75
2022/09/24 09:02:48;;;;;;;6.00;4.47;;;26.50;54.20;;;;;;5027948;28;20183;-76
2022/09/24 09:05:28;;;;;;;4.00;3.70;;;26.90;53.10;;;;;;4972420;28;20209;-75
2022/09/24 09:08:00;;;;;;;4.18;3.97;;;27.60;53.10;;;;;;4966517;28;20214;-74
2022/09/24 09:10:36;;;;;;;3.60;3.50;;;28.30;51.70;;;;;;4969671;28;21155;-75
2022/09/24 09:13:11;;;;;;;5.93;3.58;;;29.00;51.00;;;;;;4972540;28;20217;-76
2022/09/24 09:15:47;;;;;;;4.57;4.28;;;29.70;49.10;;;;;;4967320;28;20202;-75
2022/09/24 09:18:31;;;;;;;4.97;4.47;;;30.30;49.30;;;;;;4971175;28;20193;-76
2022/09/24 09:21:16;;;;;;;4.28;3.88;;;30.80;48.30;;;;;;4968243;28;20288;-76
2022/09/24 09:23:47;;;;;;;4.65;4.38;;;31.20;48.20;;;;;;4968787;28;20186;-76
2022/09/24 09:26:13;;;;;;;3.92;3.63;;;31.70;47.10;;;;;;4969431;28;20222;-76
2022/09/24 09:28:39;;;;;;;3.83;3.63;;;32.00;49.10;;;;;;4971899;28;20194;-76
2022/09/24 09:31:27;;;;;;;3.75;3.55;;;32.40;48.00;;;;;;4962999;28;20281;-75
2022/09/24 09:34:21;;;;;;;3.78;3.38;;;32.70;47.70;;;;;;4963846;28;20198;-74
2022/09/24 09:37:14;;;;;;;4.07;3.78;;;33.30;45.30;;;;;;4968628;28;20185;-74
2022/09/24 09:39:52;;;;;;;4.38;4.10;;;33.80;47.10;;;;;;4972386;28;20466;-74
2022/09/24 09:42:39;;;;;;;4.00;3.72;;;34.30;44.00;;;;;;5022272;28;20198;-74
2022/09/24 09:45:26;;;;;;;3.78;3.67;;;34.70;46.30;;;;;;5047815;28;20697;-75
2022/09/24 09:48:01;;;;;;;3.40;3.20;;;35.00;45.50;;;;;;5045131;28;20229;-75
2022/09/24 09:50:45;;;;;;;4.28;4.07;;;35.30;46.30;;;;;;5043033;28;20186;-75
2022/09/24 09:53:25;;;;;;;4.35;3.88;;;35.70;44.70;;;;;;5048386;28;20908;-74
2022/09/24 09:56:06;;;;;;;6.07;3.90;;;35.90;46.00;;;;;;5050476;28;20681;-76
2022/09/24 09:58:46;;;;;;;4.18;4.03;;;36.10;39.80;;;;;;5050102;28;20198;-76
2022/09/24 10:01:17;;;;;;;4.05;3.95;;;36.10;42.40;;;;;;5051907;28;21066;-75
2022/09/24 10:03:50;;;;;;;4.28;3.90;;;36.00;42.00;;;;;;5048705;28;20238;-76
2022/09/24 10:06:23;;;;;;;3.55;3.42;;;35.90;40.90;;;;;;5047867;28;20482;-76
2022/09/24 10:08:49;;;;;;;4.07;3.80;;;35.80;45.70;;;;;;5055055;28;20184;-76
2022/09/24 10:11:16;;;;;;;3.47;3.38;;;35.80;41.90;;;;;;5053971;28;20257;-76
2022/09/24 10:13:42;;;;;;;3.88;3.58;;;35.80;40.40;;;;;;5052267;28;20187;-75
2022/09/24 10:16:14;;;;;;;4.95;3.20;;;35.50;43.50;;;;;;5052420;28;20244;-76
2022/09/24 10:18:46;;;;;;;2.85;2.67;;;35.00;41.90;;;;;;5050940;28;20771;-75
2022/09/24 10:21:33;;;;;;;7.13;3.25;;;35.00;42.80;;;;;;5055974;28;20189;-76
2022/09/24 10:24:02;;;;;;;2.90;2.78;;;34.80;39.50;;;;;;5051199;28;20274;-75
2022/09/24 10:26:42;;;;;;;3.00;2.90;;;34.40;42.70;;;;;;5050523;28;20289;-75
2022/09/24 10:32:21;;;;;;;2.20;1.73;;;35.00;39.10;;;;;;5050471;28;20252;-75
2022/09/24 10:34:59;;;;;;;1.20;1.10;;;35.20;41.00;;;;;;5045093;28;20613;-75
2022/09/24 10:37:25;;;;;;;0.90;0.90;;;35.20;36.50;;;;;;5049796;28;20201;-75
2022/09/24 10:40:10;;;;;;;1.17;0.75;;;35.10;37.40;;;;;;5047787;28;20627;-75
2022/09/24 10:42:36;;;;;;;1.10;1.10;;;34.20;35.40;;;;;;5049232;28;20656;-75
2022/09/24 10:45:03;;;;;;;0.85;0.85;;;33.30;38.00;;;;;;5047862;28;20210;-75
2022/09/24 10:47:50;;;;;;;1.10;1.10;;;32.60;39.80;;;;;;5047194;28;20214;-75
2022/09/24 10:50:45;;;;;;;3.83;1.00;;;32.30;39.90;;;;;;5043376;28;20199;-75
2022/09/24 10:53:38;;;;;;;1.08;1.08;;;32.30;39.40;;;;;;5048405;28;20192;-75
2022/09/24 10:56:29;;;;;;;1.30;1.30;;;32.10;36.10;;;;;;5047732;28;20862;-75
2022/09/24 10:59:20;;;;;;;1.00;1.00;;;31.30;37.40;;;;;;5036841;28;20199;-75
2022/09/24 11:02:12;;;;;;;1.00;1.00;;;31.00;37.10;;;;;;5022270;28;20763;-76
2022/09/24 11:04:49;;;;;;;1.10;1.10;;;30.30;39.00;;;;;;5035823;28;20188;-78
2022/09/24 11:07:23;;;;;;;1.23;1.23;;;30.20;39.40;;;;;;5042145;28;20218;-76
2022/09/24 11:09:54;;;;;;;1.33;0.82;;;30.00;39.10;;;;;;5038717;28;20274;-76
2022/09/24 11:12:31;;;;;;;1.15;1.05;;;29.90;38.90;;;;;;5038366;28;20370;-76
2022/09/24 11:15:28;;;;;;;3.15;1.23;;;29.60;38.70;;;;;;5037169;28;20223;-76
2022/09/24 11:18:27;;;;;;;1.60;1.50;;;29.00;39.00;;;;;;5040487;28;20179;-76
2022/09/24 11:20:57;;;;;;;1.13;1.10;;;28.70;39.20;;;;;;5039021;28;20226;-75
2022/09/24 11:23:51;;;;;;;1.00;1.00;;;28.70;40.20;;;;;;5040289;28;21438;-74
2022/09/24 11:26:33;;;;;;;0.85;0.85;;;28.70;39.50;;;;;;5037830;28;20361;-75
2022/09/24 11:29:02;;;;;;;1.85;0.90;;;28.50;41.00;;;;;;5038003;28;20639;-76
2022/09/24 11:31:43;;;;;;;0.93;0.93;;;28.60;41.20;;;;;;5037991;28;20784;-76
2022/09/24 11:34:40;;;;;;;0.80;0.80;;;28.80;39.40;;;;;;5039441;28;20234;-75
2022/09/24 11:37:28;;;;;;;0.90;0.90;;;28.70;39.30;;;;;;4948503;28;20282;-75
2022/09/24 11:40:11;;;;;;;1.05;1.00;;;28.70;39.50;;;;;;4963733;28;20599;-74
2022/09/24 11:42:52;;;;;;;0.80;0.60;;;28.70;40.20;;;;;;4981423;28;20202;-73
2022/09/24 11:45:33;;;;;;;0.90;0.90;;;28.70;39.40;;;;;;4967979;28;20272;-74
2022/09/24 11:48:22;;;;;;;1.45;1.35;;;28.50;40.40;;;;;;4968078;28;20330;-74
2022/09/24 11:51:10;;;;;;;1.08;1.08;;;28.30;39.40;;;;;;4967338;28;20237;-75
2022/09/24 11:53:50;;;;;;;0.90;0.90;;;28.20;40.50;;;;;;4964716;28;20256;-75
2022/09/24 11:56:19;;;;;;;0.80;0.80;;;28.40;39.90;;;;;;4966490;28;20205;-75
2022/09/24 11:58:51;;;;;;;0.80;0.80;;;28.50;39.20;;;;;;4966015;28;20253;-73
2022/09/24 12:01:21;;;;;;;1.85;1.00;;;28.60;39.20;;;;;;4961982;28;20202;-73
2022/09/24 12:03:55;;;;;;;0.90;0.90;;;28.70;40.90;;;;;;4966641;28;20194;-74
2022/09/24 12:06:30;;;;;;;0.85;0.85;;;28.90;40.40;;;;;;4964409;28;20214;-73
2022/09/24 12:09:27;;;;;;;1.20;1.10;;;28.80;39.70;;;;;;4964325;28;20192;-74
2022/09/24 12:12:07;;;;;;;1.00;1.00;;;28.90;39.80;;;;;;4978429;28;20264;-76
2022/09/24 12:14:42;;;;;;;1.00;1.00;;;28.90;39.40;;;;;;5036201;28;20613;-76
2022/09/24 12:17:14;;;;;;;1.20;0.98;;;29.00;39.40;;;;;;5058705;28;20191;-75
2022/09/24 12:19:55;;;;;;;0.70;0.70;;;29.10;40.00;;;;;;5061174;28;20588;-75
2022/09/24 12:22:23;;;;;;;0.93;0.93;;;29.10;38.70;;;;;;5062305;28;20694;-76
2022/09/24 12:24:51;;;;;;;0.70;0.70;;;29.20;40.20;;;;;;5047323;28;20183;-75
2022/09/24 12:27:27;;;;;;;0.93;0.93;;;29.10;39.50;;;;;;5063733;28;20761;-75
2022/09/24 12:33:22;;;;;;;1.02;1.02;;;28.00;39.60;;;;;;5063623;28;20193;-75
2022/09/24 12:36:26;;;;;;;0.80;0.80;;;27.70;40.20;;;;;;5062927;28;20198;-75
2022/09/24 12:39:00;;;;;;;1.00;1.00;;;27.60;40.40;;;;;;5063675;28;20305;-75
2022/09/24 12:41:33;;;;;;;0.95;0.95;;;27.70;41.90;;;;;;5061337;28;20264;-75
2022/09/24 12:44:12;;;;;;;1.20;1.20;;;27.80;40.10;;;;;;5063304;28;20434;-75
2022/09/24 12:46:55;;;;;;;1.15;1.15;;;27.70;40.10;;;;;;5062388;28;20218;-75
2022/09/24 12:49:24;;;;;;;1.15;1.05;;;27.90;41.30;;;;;;5049441;28;20199;-75
2022/09/24 12:51:56;;;;;;;1.20;1.20;;;28.20;42.70;;;;;;5053963;28;20189;-75
2022/09/24 12:54:27;;;;;;;0.90;0.90;;;28.40;40.80;;;;;;5053446;28;20187;-75
2022/09/24 12:57:15;;;;;;;0.85;0.85;;;28.50;39.90;;;;;;5055644;28;20190;-75
2022/09/24 12:59:51;;;;;;;1.05;1.05;;;28.50;39.60;;;;;;5050914;28;20194;-75
2022/09/24 13:02:22;;;;;;;1.23;0.95;;;28.30;39.90;;;;;;5043586;28;20840;-75
2022/09/24 13:05:14;;;;;;;0.98;0.90;;;28.30;40.60;;;;;;5051970;28;20188;-75
2022/09/24 13:07:40;;;;;;;1.25;0.80;;;28.20;39.70;;;;;;5011884;28;20307;-75
2022/09/24 13:10:15;;;;;;;0.85;0.85;;;28.10;41.90;;;;;;5015954;28;20705;-76
2022/09/24 13:12:42;;;;;;;1.17;0.75;;;28.10;40.20;;;;;;5012069;28;20188;-77
2022/09/24 13:15:51;;;;;;;1.35;0.90;;;28.20;40.80;;;;;;5012532;28;20216;-76
2022/09/24 13:18:23;;;;;;;1.00;1.00;;;28.20;39.90;;;;;;4960856;28;20992;-76
2022/09/24 13:21:04;;;;;;;1.40;0.80;;;28.00;40.20;;;;;;4962489;28;20651;-76
2022/09/24 13:23:41;;;;;;;1.55;1.05;;;28.00;40.10;;;;;;4948617;28;20182;-76
2022/09/24 13:26:11;;;;;;;1.05;1.05;;;27.90;40.60;;;;;;4960332;28;20238;-77
2022/09/24 13:29:02;;;;;;;1.05;0.90;;;28.10;42.10;;;;;;4960404;28;20302;-77
2022/09/24 13:31:27;;;;;;;0.80;0.80;;;28.20;40.70;;;;;;4960863;28;20256;-76
2022/09/24 13:34:05;;;;;;;0.90;0.90;;;28.30;41.10;;;;;;4959597;28;20226;-74